createdAt,value
2019-02-11T00:01:33.943Z,63.09
2019-02-11T00:04:06.404Z,63.12
2019-02-11T00:06:38.727Z,63.00
2019-02-11T00:09:13.806Z,63.04
2019-02-11T00:11:49.380Z,63.17
2019-02-11T00:14:23.912Z,63.30
2019-02-11T00:16:56.380Z,63.38
2019-02-11T00:19:33.271Z,63.30
2019-02-11T00:22:05.974Z,63.37
2019-02-11T00:24:47.582Z,63.52
2019-02-11T00:27:29.318Z,63.43
2019-02-11T00:30:07.302Z,63.67
2019-02-11T00:32:39.663Z,63.81
2019-02-11T00:35:12.259Z,63.60
2019-02-11T00:37:44.602Z,63.68
2019-02-11T00:40:29.102Z,63.42
2019-02-11T00:43:04.208Z,63.41
2019-02-11T00:45:36.484Z,63.52
2019-02-11T00:48:15.627Z,63.61
2019-02-11T00:50:47.835Z,63.64
2019-02-11T00:53:20.167Z,63.84
2019-02-11T00:55:52.441Z,64.01
2019-02-11T00:58:24.680Z,64.07
2019-02-11T01:00:57.137Z,64.11
2019-02-11T01:03:29.497Z,64.08
2019-02-11T01:06:01.756Z,64.26
2019-02-11T01:08:34.328Z,64.28
2019-02-11T01:11:06.569Z,64.33
2019-02-11T01:13:38.938Z,64.00
2019-02-11T01:16:11.219Z,63.96
2019-02-11T01:18:44.543Z,64.02
2019-02-11T01:21:16.866Z,63.88
2019-02-11T01:23:49.223Z,63.73
2019-02-11T01:26:21.571Z,63.80
2019-02-11T01:28:53.980Z,63.76
2019-02-11T01:31:26.268Z,63.84
2019-02-11T01:33:59.600Z,63.96
2019-02-11T01:36:31.892Z,63.69
2019-02-11T01:39:05.632Z,63.74
2019-02-11T01:41:37.931Z,63.96
2019-02-11T01:44:10.187Z,64.02
2019-02-11T01:46:42.456Z,63.70
2019-02-11T01:49:14.728Z,63.90
2019-02-11T01:51:47.124Z,64.12
2019-02-11T01:54:19.461Z,64.18
2019-02-11T01:56:51.781Z,64.05
2019-02-11T01:59:24.109Z,64.04
2019-02-11T02:01:56.605Z,64.19
2019-02-11T02:04:28.989Z,64.08
2019-02-11T02:07:01.373Z,64.16
2019-02-11T02:09:33.703Z,64.16
2019-02-11T02:12:06.065Z,64.15
2019-02-11T02:14:38.315Z,64.27
2019-02-11T02:17:12.083Z,64.28
2019-02-11T02:19:44.396Z,64.33
2019-02-11T02:22:16.680Z,64.56
2019-02-11T02:24:48.979Z,64.59
2019-02-11T02:27:28.755Z,64.64
2019-02-11T02:30:01.017Z,64.63
2019-02-11T02:32:33.365Z,64.78
2019-02-11T02:35:05.677Z,64.79
2019-02-11T02:37:38.005Z,64.74
2019-02-11T02:40:11.420Z,64.70
2019-02-11T02:42:43.764Z,64.31
2019-02-11T02:45:15.998Z,64.28
2019-02-11T02:47:48.324Z,64.24
2019-02-11T02:50:20.868Z,63.96
2019-02-11T02:52:53.142Z,64.05
2019-02-11T02:55:25.485Z,63.94
2019-02-11T02:57:57.707Z,64.02
2019-02-11T03:00:29.959Z,63.95
2019-02-11T03:03:02.222Z,63.92
2019-02-11T03:05:34.544Z,63.80
2019-02-11T03:08:06.800Z,63.61
2019-02-11T03:10:39.102Z,63.79
2019-02-11T03:13:11.438Z,63.54
2019-02-11T03:15:43.788Z,63.36
2019-02-11T03:18:16.107Z,63.50
2019-02-11T03:20:48.428Z,63.04
2019-02-11T03:23:20.789Z,62.85
2019-02-11T03:25:53.118Z,62.87
2019-02-11T03:28:25.528Z,62.45
2019-02-11T03:30:57.793Z,62.53
2019-02-11T03:33:30.031Z,62.39
2019-02-11T03:36:02.280Z,62.31
2019-02-11T03:38:34.514Z,62.08
2019-02-11T03:41:06.838Z,62.15
2019-02-11T03:43:39.155Z,62.23
2019-02-11T03:46:11.406Z,61.68
2019-02-11T03:48:43.627Z,61.69
2019-02-11T03:51:15.990Z,62.10
2019-02-11T03:53:48.270Z,61.92
2019-02-11T03:56:20.570Z,61.86
2019-02-11T03:58:52.924Z,61.89
2019-02-11T04:01:25.208Z,61.58
2019-02-11T04:03:58.612Z,61.64
2019-02-11T04:06:30.964Z,61.62
2019-02-11T04:09:04.524Z,61.94
2019-02-11T04:11:37.178Z,62.36
2019-02-11T04:14:09.457Z,62.70
2019-02-11T04:16:41.733Z,62.96
2019-02-11T04:19:14.151Z,62.97
2019-02-11T04:21:46.396Z,62.68
2019-02-11T04:24:18.640Z,62.74
2019-02-11T04:26:51.490Z,62.63
2019-02-11T04:29:23.849Z,62.95
2019-02-11T04:31:56.093Z,62.82
2019-02-11T04:34:28.387Z,62.84
2019-02-11T04:37:00.705Z,62.53
2019-02-11T04:39:32.959Z,62.37
2019-02-11T04:42:05.335Z,62.50
2019-02-11T04:44:37.682Z,62.67
2019-02-11T04:47:09.912Z,62.80
2019-02-11T04:49:42.176Z,63.84
2019-02-11T04:52:14.568Z,65.05
2019-02-11T04:54:46.958Z,66.24
2019-02-11T04:57:19.229Z,67.13
2019-02-11T04:59:51.578Z,67.77
2019-02-11T05:02:23.904Z,68.90
2019-02-11T05:04:56.222Z,69.37
2019-02-11T05:07:28.545Z,69.14
2019-02-11T05:10:00.816Z,69.55
2019-02-11T05:12:33.262Z,69.30
2019-02-11T05:15:08.762Z,69.42
2019-02-11T05:17:52.550Z,69.28
2019-02-11T05:20:27.167Z,69.48
2019-02-11T05:22:59.427Z,68.95
2019-02-11T05:25:31.797Z,68.79
2019-02-11T05:28:04.237Z,68.33
2019-02-11T05:30:36.542Z,67.29
2019-02-11T05:33:09.064Z,67.26
2019-02-11T05:35:41.434Z,67.06
2019-02-11T05:38:13.694Z,66.80
2019-02-11T05:40:46.122Z,66.51
2019-02-11T05:43:18.403Z,65.97
2019-02-11T05:45:58.031Z,65.72
2019-02-11T05:48:30.435Z,65.59
2019-02-11T05:51:03.032Z,65.44
2019-02-11T05:53:35.394Z,65.34
2019-02-11T05:56:07.802Z,65.24
2019-02-11T05:58:40.142Z,65.55
2019-02-11T06:01:14.853Z,66.06
2019-02-11T06:03:47.222Z,66.44
2019-02-11T06:06:19.558Z,66.76
2019-02-11T06:08:52.027Z,67.09
2019-02-11T06:11:24.383Z,66.77
2019-02-11T06:13:56.827Z,67.11
2019-02-11T06:16:29.159Z,67.26
2019-02-11T06:19:01.584Z,67.33
2019-02-11T06:21:33.926Z,67.73
2019-02-11T06:24:06.449Z,67.66
2019-02-11T06:26:38.732Z,67.58
2019-02-11T06:29:11.121Z,67.95
2019-02-11T06:31:43.574Z,68.24
2019-02-11T06:34:16.431Z,68.77
2019-02-11T06:36:50.281Z,69.21
2019-02-11T06:39:22.563Z,69.93
2019-02-11T06:41:54.776Z,70.20
2019-02-11T06:44:27.145Z,70.53
2019-02-11T06:46:59.500Z,70.68
2019-02-11T06:49:31.908Z,70.69
2019-02-11T06:52:06.309Z,71.13
2019-02-11T06:54:38.573Z,71.47
2019-02-11T06:57:10.942Z,71.67
2019-02-11T06:59:43.295Z,71.85
2019-02-11T07:02:17.119Z,72.43
2019-02-11T07:04:49.446Z,72.39
2019-02-11T07:07:21.708Z,72.25
2019-02-11T07:09:53.960Z,72.22
2019-02-11T07:12:26.320Z,72.27
2019-02-11T07:14:58.672Z,72.02
2019-02-11T07:17:30.936Z,72.02
2019-02-11T07:20:03.370Z,71.68
2019-02-11T07:22:35.700Z,71.72
2019-02-11T07:25:08.721Z,71.39
2019-02-11T07:27:42.083Z,71.66
2019-02-11T07:30:15.260Z,71.79
2019-02-11T07:32:47.685Z,72.24
2019-02-11T07:35:20.030Z,72.03
2019-02-11T07:37:52.390Z,72.83
2019-02-11T07:40:27.202Z,72.91
2019-02-11T07:43:09.654Z,73.12
2019-02-11T07:46:12.500Z,72.99
2019-02-11T07:48:45.287Z,72.94
2019-02-11T07:51:23.723Z,72.98
2019-02-11T07:53:59.440Z,73.56
2019-02-11T07:56:32.134Z,74.33
2019-02-11T07:59:05.864Z,74.98
2019-02-11T08:01:39.949Z,75.20
2019-02-11T08:04:14.074Z,75.30
2019-02-11T08:06:47.028Z,75.90
2019-02-11T08:09:19.873Z,76.37
2019-02-11T08:11:56.530Z,76.48
2019-02-11T08:14:32.492Z,76.39
2019-02-11T08:17:05.063Z,76.68
2019-02-11T08:19:37.460Z,76.64
2019-02-11T08:22:10.080Z,75.98
2019-02-11T08:24:44.044Z,75.84
2019-02-11T08:27:17.937Z,75.05
2019-02-11T08:29:50.562Z,74.23
2019-02-11T08:32:22.980Z,74.17
2019-02-11T08:34:55.986Z,74.11
2019-02-11T08:37:28.368Z,73.73
2019-02-11T08:40:00.786Z,74.18
2019-02-11T08:42:33.449Z,75.06
2019-02-11T08:45:06.790Z,75.10
2019-02-11T08:47:39.274Z,75.50
2019-02-11T08:50:12.819Z,75.20
2019-02-11T08:52:45.399Z,75.73
2019-02-11T08:55:17.919Z,75.95
2019-02-11T08:57:52.652Z,75.85
2019-02-11T09:00:25.103Z,75.86
2019-02-11T09:02:57.496Z,75.84
2019-02-11T09:05:29.987Z,75.88
2019-02-11T09:08:02.411Z,75.83
2019-02-11T09:10:34.760Z,75.83
2019-02-11T09:13:07.345Z,74.83
2019-02-11T09:15:39.647Z,74.95
2019-02-11T09:18:12.039Z,75.09
2019-02-11T09:20:44.374Z,74.81
2019-02-11T09:23:16.710Z,74.42
2019-02-11T09:25:49.064Z,74.63
2019-02-11T09:28:21.503Z,74.66
2019-02-11T09:30:54.862Z,74.08
2019-02-11T09:33:38.489Z,73.92
2019-02-11T09:36:19.941Z,73.90
2019-02-11T09:38:54.209Z,74.00
2019-02-11T09:41:26.981Z,73.98
2019-02-11T09:43:59.446Z,73.91
2019-02-11T09:46:31.877Z,73.73
2019-02-11T09:49:04.374Z,73.69
2019-02-11T09:51:40.632Z,73.78
2019-02-11T09:54:13.053Z,73.51
2019-02-11T09:56:46.314Z,72.74
2019-02-11T09:59:18.898Z,72.36
2019-02-11T10:01:51.827Z,72.34
2019-02-11T10:04:24.401Z,71.39
2019-02-11T10:06:56.970Z,71.59
2019-02-11T10:09:29.875Z,71.12
2019-02-11T10:12:02.392Z,70.69
2019-02-11T10:14:34.658Z,69.33
2019-02-11T10:17:29.542Z,68.77
2019-02-11T10:19:54.368Z,67.55
2019-02-11T10:22:27.544Z,66.44
2019-02-11T10:25:00.276Z,67.17
2019-02-11T10:27:34.322Z,67.26
2019-02-11T10:30:10.441Z,67.90
2019-02-11T10:32:45.089Z,67.86
2019-02-11T10:35:18.061Z,67.81
2019-02-11T10:37:50.601Z,67.81
2019-02-11T10:40:22.927Z,67.26
2019-02-11T10:42:55.261Z,66.33
2019-02-11T10:45:36.262Z,65.67
2019-02-11T10:48:01.790Z,65.72
2019-02-11T10:50:34.180Z,65.57
2019-02-11T10:53:06.510Z,65.42
2019-02-11T10:55:38.936Z,65.55
2019-02-11T10:58:13.714Z,65.40
2019-02-11T11:00:46.009Z,65.68
2019-02-11T11:03:18.496Z,65.37
2019-02-11T11:05:50.975Z,65.20
2019-02-11T11:08:23.412Z,65.25
2019-02-11T11:10:55.820Z,65.25
2019-02-11T11:13:29.344Z,65.36
2019-02-11T11:16:01.678Z,66.02
2019-02-11T11:18:34.043Z,66.04
2019-02-11T11:21:08.357Z,65.99
2019-02-11T11:23:40.837Z,65.61
2019-02-11T11:26:13.425Z,66.48
2019-02-11T11:28:45.778Z,65.80
2019-02-11T11:31:18.174Z,66.00
2019-02-11T11:33:50.570Z,65.21
2019-02-11T11:36:23.071Z,65.24
2019-02-11T11:38:55.636Z,65.84
2019-02-11T11:41:27.994Z,65.44
2019-02-11T11:44:00.438Z,65.18
2019-02-11T11:46:45.661Z,65.73
2019-02-11T11:49:06.811Z,65.93
2019-02-11T11:51:40.608Z,65.97
2019-02-11T11:54:12.952Z,65.27
2019-02-11T11:56:46.355Z,65.43
2019-02-11T11:59:18.759Z,65.15
2019-02-11T12:01:51.036Z,65.58
2019-02-11T12:04:23.527Z,65.63
2019-02-11T12:06:56.767Z,65.35
2019-02-11T12:09:29.239Z,64.23
2019-02-11T12:12:01.637Z,64.12
2019-02-11T12:14:36.159Z,64.45
2019-02-11T12:17:08.457Z,66.24
2019-02-11T12:19:40.893Z,69.03
2019-02-11T12:22:13.536Z,68.56
2019-02-11T12:24:45.882Z,68.32
2019-02-11T12:27:18.135Z,68.21
2019-02-11T12:29:50.653Z,67.46
2019-02-11T12:32:22.926Z,67.11
2019-02-11T12:34:55.217Z,66.98
2019-02-11T12:37:27.643Z,66.22
2019-02-11T12:39:59.962Z,66.09
2019-02-11T12:42:32.298Z,66.37
2019-02-11T12:45:04.557Z,65.77
2019-02-11T12:47:36.961Z,65.15
2019-02-11T12:50:10.787Z,65.32
2019-02-11T12:52:43.296Z,66.57
2019-02-11T12:55:18.471Z,67.70
2019-02-11T12:57:50.997Z,66.13
2019-02-11T13:00:23.719Z,67.32
2019-02-11T13:02:56.090Z,66.72
2019-02-11T13:05:44.080Z,67.42
2019-02-11T13:08:02.396Z,66.63
2019-02-11T13:10:35.032Z,66.20
2019-02-11T13:13:07.716Z,66.19
2019-02-11T13:16:00.006Z,65.17
2019-02-11T13:18:14.703Z,65.34
2019-02-11T13:20:47.589Z,65.28
2019-02-11T13:23:20.037Z,64.54
2019-02-11T13:25:52.399Z,64.39
2019-02-11T13:28:24.769Z,63.67
2019-02-11T13:30:57.234Z,64.04
2019-02-11T13:33:29.759Z,62.79
2019-02-11T13:36:02.036Z,62.32
2019-02-11T13:38:34.472Z,62.44
2019-02-11T13:41:06.873Z,61.31
2019-02-11T13:43:39.275Z,61.65
2019-02-11T13:46:11.737Z,62.24
2019-02-11T13:48:46.471Z,62.23
2019-02-11T13:51:19.262Z,62.73
2019-02-11T13:53:51.714Z,61.94
2019-02-11T13:56:24.079Z,61.25
2019-02-11T13:58:56.723Z,61.73
2019-02-11T14:01:29.628Z,61.50
2019-02-11T14:04:02.127Z,60.74
2019-02-11T14:06:34.680Z,60.71
2019-02-11T14:09:12.583Z,60.86
2019-02-11T14:11:46.664Z,60.67
2019-02-11T14:14:25.941Z,60.74
2019-02-11T14:16:58.371Z,61.46
2019-02-11T14:19:30.709Z,62.35
2019-02-11T14:22:03.202Z,62.09
2019-02-11T14:24:38.070Z,62.89
2019-02-11T14:27:11.915Z,63.81
2019-02-11T14:29:45.383Z,65.99
2019-02-11T14:32:18.071Z,67.50
2019-02-11T14:34:51.991Z,68.91
2019-02-11T14:37:25.901Z,69.21
2019-02-11T14:39:58.666Z,69.75
2019-02-11T14:42:31.308Z,70.39
2019-02-11T14:45:04.018Z,70.21
2019-02-11T14:47:36.696Z,70.59
2019-02-11T14:50:09.734Z,70.57
2019-02-11T14:52:42.464Z,70.38
2019-02-11T14:55:15.109Z,68.60
2019-02-11T14:57:48.013Z,70.29
2019-02-11T15:00:21.218Z,70.13
2019-02-11T15:02:54.859Z,69.31
2019-02-11T15:05:27.319Z,69.76
2019-02-11T15:08:01.284Z,69.09
2019-02-11T15:10:33.876Z,68.77
2019-02-11T15:13:06.279Z,68.69
2019-02-11T15:15:38.800Z,67.64
2019-02-11T15:18:11.204Z,67.84
2019-02-11T15:20:44.772Z,67.61
2019-02-11T15:23:17.463Z,67.59
2019-02-11T15:25:50.577Z,67.26
2019-02-11T15:28:23.047Z,67.36
2019-02-11T15:30:55.586Z,67.40
2019-02-11T15:33:34.372Z,68.34
2019-02-11T15:36:07.066Z,68.25
2019-02-11T15:38:39.540Z,67.83
2019-02-11T15:41:12.353Z,67.56
2019-02-11T15:43:44.845Z,67.52
2019-02-11T15:46:17.316Z,67.68
2019-02-11T15:48:49.814Z,67.57
2019-02-11T15:51:22.244Z,67.40
2019-02-11T15:53:56.325Z,67.29
2019-02-11T15:56:28.997Z,66.98
2019-02-11T15:59:01.515Z,66.79
2019-02-11T16:01:36.065Z,66.61
2019-02-11T16:04:08.694Z,64.96
2019-02-11T16:06:41.126Z,64.34
2019-02-11T16:09:13.785Z,64.20
2019-02-11T16:11:46.396Z,63.84
2019-02-11T16:14:22.282Z,63.58
2019-02-11T16:16:58.545Z,62.84
2019-02-11T16:19:32.721Z,62.73
2019-02-11T16:22:05.936Z,62.77
2019-02-11T16:24:42.447Z,62.63
2019-02-11T16:27:18.935Z,62.74
2019-02-11T16:29:51.849Z,62.99
2019-02-11T16:32:24.293Z,62.96
2019-02-11T16:34:56.652Z,62.98
2019-02-11T16:37:29.116Z,62.95
2019-02-11T16:40:01.798Z,62.75
2019-02-11T16:42:35.071Z,62.85
2019-02-11T16:45:08.245Z,62.81
2019-02-11T16:47:40.806Z,63.02
2019-02-11T16:50:19.262Z,62.86
2019-02-11T16:52:52.949Z,62.91
2019-02-11T16:55:28.478Z,63.09
2019-02-11T16:58:03.038Z,63.44
2019-02-11T17:00:38.542Z,64.38
2019-02-11T17:03:16.074Z,64.66
2019-02-11T17:05:52.802Z,64.50
2019-02-11T17:08:29.105Z,64.73
2019-02-11T17:11:09.967Z,64.18
2019-02-11T17:13:44.476Z,64.43
2019-02-11T17:16:21.265Z,64.61
2019-02-11T17:18:58.651Z,64.76
2019-02-11T17:21:31.696Z,64.80
2019-02-11T17:24:05.720Z,64.53
2019-02-11T17:26:41.762Z,64.88
2019-02-11T17:29:14.135Z,65.06
2019-02-11T17:31:46.547Z,64.67
2019-02-11T17:34:18.972Z,64.72
2019-02-11T17:36:51.505Z,65.21
2019-02-11T17:39:25.214Z,65.20
2019-02-11T17:42:01.671Z,65.51
2019-02-11T17:44:38.721Z,65.58
2019-02-11T17:47:13.837Z,65.48
2019-02-11T17:49:47.854Z,65.19
2019-02-11T17:52:21.438Z,65.32
2019-02-11T17:54:55.057Z,65.02
2019-02-11T17:57:27.604Z,64.93
2019-02-11T18:00:05.628Z,64.96
2019-02-11T18:02:42.047Z,65.01
2019-02-11T18:05:15.307Z,65.12
2019-02-11T18:07:48.161Z,65.06
2019-02-11T18:10:20.742Z,65.58
2019-02-11T18:12:54.671Z,64.97
2019-02-11T18:15:27.189Z,65.10
2019-02-11T18:17:59.605Z,65.11
2019-02-11T18:20:32.116Z,65.36
2019-02-11T18:23:05.155Z,65.49
2019-02-11T18:25:40.496Z,65.97
2019-02-11T18:28:12.916Z,65.70
2019-02-11T18:30:45.398Z,65.99
2019-02-11T18:33:17.805Z,66.43
2019-02-11T18:35:50.205Z,66.16
2019-02-11T18:38:22.687Z,65.99
2019-02-11T18:40:55.243Z,66.00
2019-02-11T18:43:27.924Z,66.34
2019-02-11T18:46:03.503Z,66.37
2019-02-11T18:48:35.980Z,66.41
2019-02-11T18:51:08.775Z,66.61
2019-02-11T18:53:42.852Z,66.62
2019-02-11T18:56:15.540Z,66.59
2019-02-11T18:58:48.580Z,66.34
2019-02-11T19:01:23.814Z,66.67
2019-02-11T19:03:56.969Z,66.76
2019-02-11T19:06:29.470Z,66.90
2019-02-11T19:09:06.318Z,67.07
2019-02-11T19:11:42.373Z,67.10
2019-02-11T19:14:15.058Z,67.40
2019-02-11T19:16:48.709Z,67.89
2019-02-11T19:19:21.322Z,68.08
2019-02-11T19:21:53.941Z,68.68
2019-02-11T19:24:26.352Z,69.11
2019-02-11T19:26:58.878Z,69.71
2019-02-11T19:29:31.752Z,69.58
2019-02-11T19:32:05.967Z,69.95
2019-02-11T19:34:38.475Z,70.10
2019-02-11T19:37:11.367Z,70.05
2019-02-11T19:39:46.883Z,70.35
2019-02-11T19:42:20.417Z,70.33
2019-02-11T19:44:55.158Z,70.27
2019-02-11T19:47:27.668Z,70.06
2019-02-11T19:50:00.410Z,69.75
2019-02-11T19:52:34.606Z,69.79
2019-02-11T19:55:08.306Z,69.49
2019-02-11T19:57:43.330Z,69.67
2019-02-11T20:00:20.477Z,69.67
2019-02-11T20:02:53.341Z,69.57
2019-02-11T20:05:27.196Z,69.21
2019-02-11T20:08:04.845Z,68.77
2019-02-11T20:10:43.765Z,68.25
2019-02-11T20:13:22.513Z,68.09
2019-02-11T20:15:57.439Z,68.02
2019-02-11T20:18:30.013Z,67.99
2019-02-11T20:21:09.420Z,67.85
2019-02-11T20:23:50.965Z,67.93
2019-02-11T20:26:28.969Z,68.08
2019-02-11T20:29:11.409Z,68.42
2019-02-11T20:31:45.641Z,68.87
2019-02-11T20:34:21.509Z,69.23
2019-02-11T20:37:04.985Z,69.47
2019-02-11T20:39:39.525Z,69.47
2019-02-11T20:42:41.029Z,69.35
2019-02-11T20:45:24.039Z,69.21
2019-02-11T20:48:03.254Z,68.71
2019-02-11T20:50:40.322Z,68.64
2019-02-11T20:53:13.514Z,68.32
2019-02-11T20:55:48.624Z,67.71
2019-02-11T20:58:23.565Z,67.48
2019-02-11T21:00:56.220Z,67.64
2019-02-11T21:03:28.997Z,67.58
2019-02-11T21:06:03.463Z,68.05
2019-02-11T21:08:36.890Z,68.10
2019-02-11T21:11:12.578Z,68.28
2019-02-11T21:13:45.422Z,68.55
2019-02-11T21:16:17.917Z,68.13
2019-02-11T21:18:50.617Z,67.59
2019-02-11T21:21:25.991Z,67.29
2019-02-11T21:23:58.477Z,67.12
2019-02-11T21:26:32.368Z,66.61
2019-02-11T21:29:05.028Z,66.35
2019-02-11T21:31:38.178Z,66.05
2019-02-11T21:34:12.297Z,65.51
2019-02-11T21:36:44.893Z,63.99
2019-02-11T21:39:18.196Z,63.58
2019-02-11T21:41:51.369Z,63.38
2019-02-11T21:44:24.215Z,62.45
2019-02-11T21:46:56.772Z,61.91
2019-02-11T21:49:31.229Z,61.17
2019-02-11T21:52:03.692Z,60.78
2019-02-11T21:54:35.904Z,60.62
2019-02-11T21:57:08.242Z,60.21
2019-02-11T21:59:40.495Z,59.99
2019-02-11T22:02:12.765Z,59.70
2019-02-11T22:04:45.070Z,59.26
2019-02-11T22:07:17.442Z,59.42
2019-02-11T22:09:49.768Z,58.93
2019-02-11T22:12:22.026Z,58.36
2019-02-11T22:14:54.566Z,58.54
2019-02-11T22:17:27.033Z,58.35
2019-02-11T22:19:59.391Z,59.04
2019-02-11T22:22:31.727Z,58.18
2019-02-11T22:25:04.222Z,58.34
2019-02-11T22:27:36.511Z,57.85
2019-02-11T22:30:13.779Z,57.89
2019-02-11T22:32:46.379Z,57.48
2019-02-11T22:35:18.660Z,57.80
2019-02-11T22:37:51.081Z,57.82
2019-02-11T22:40:23.480Z,58.00
2019-02-11T22:42:55.733Z,58.21
2019-02-11T22:45:30.211Z,58.24
2019-02-11T22:48:04.033Z,58.33
2019-02-11T22:50:42.974Z,58.50
2019-02-11T22:53:10.424Z,58.53
2019-02-11T22:55:42.722Z,58.20
2019-02-11T22:58:15.065Z,58.21
2019-02-11T23:00:59.972Z,58.09
2019-02-11T23:03:35.824Z,58.34
2019-02-11T23:06:09.225Z,58.65
2019-02-11T23:08:42.707Z,58.88
2019-02-11T23:11:15.091Z,59.04
2019-02-11T23:13:47.370Z,59.22
2019-02-11T23:16:19.680Z,59.48
2019-02-11T23:18:53.045Z,59.87
2019-02-11T23:21:25.353Z,60.24
2019-02-11T23:23:57.660Z,60.64
2019-02-11T23:26:29.947Z,61.13
2019-02-11T23:29:02.284Z,61.46
2019-02-11T23:31:34.558Z,61.79
2019-02-11T23:34:06.826Z,62.02
2019-02-11T23:36:39.090Z,62.44
2019-02-11T23:39:15.396Z,62.71
2019-02-11T23:41:51.409Z,62.94
2019-02-11T23:44:23.673Z,62.76
2019-02-11T23:46:55.987Z,63.18
2019-02-11T23:49:28.250Z,63.37
2019-02-11T23:52:00.502Z,63.25
2019-02-11T23:54:32.725Z,63.23
2019-02-11T23:57:05.017Z,63.52
2019-02-11T23:59:37.377Z,63.26
